Flight Track Log - Related Links

Times and Time Zones

All times are in EDT time to prevent confusion due to time zone crossing. See the UAL4234 flight status page for this flight to view local times or setup timezone preferences in your user account.

Time Position Orientation Groundspeed Altitude Reporting Facility
EDT Latitude Longitude Course Direction KTS MPH feet Rate Location/Type
Fri 11:17:26 AM 29.9572 -95.3392 97° East 175 201 700  Level Houston Center
Fri 11:18:28 AM 29.9414 -95.2808 107° East 224 258 2,400 1,758 Climbing Houston Center
Fri 11:19:05 AM 29.9386 -95.2378 94° East 235 270 3,600 1,636 Climbing Houston Center
Fri 11:19:23 AM 29.9364 -95.2067 95° East 260 299 3,900 387 Climbing Houston Center
Fri 11:20:07 AM 29.9319 -95.1544 96° East 255 293 4,000 736 Climbing Houston Center
Fri 11:21:09 AM 29.9250 -95.0689 95° East 266 306 5,200 1,595 Climbing Houston Center
Fri 11:21:26 AM 29.9225 -95.0347 95° East 265 305 6,100 2,903 Climbing Houston Center
Fri 11:22:00 AM 29.8947 -94.6183 97° East  Level FlightAware Approximate
Fri 11:22:11 AM 29.9178 -94.9808 96° East 274 315 8,200  Level Houston Center
Fri 11:22:27 AM 29.9139 -94.9442 97° East 271 312 9,200 1,935 Climbing Houston Center
Fri 11:23:13 AM 29.9103 -94.8917 95° East 278 320 10,200 1,355 Climbing Houston Center
Fri 11:23:29 AM 29.9067 -94.8439 95° East 321 369 10,600 968 Climbing Houston Center
Fri 11:24:15 AM 29.9008 -94.7631 95° East 336 387 11,200 1,046 Climbing Houston Center
Fri 11:25:18 AM 29.8894 -94.6389 96° East 380 437 12,500 1,296 Climbing Houston Center
Fri 11:26:20 AM 29.8789 -94.5119 95° East 396 456 13,900 1,355 Climbing Houston Center
Fri 11:27:22 AM 29.8739 -94.3794 92° East 413 475 15,300 1,403 Climbing Houston Center
Fri 11:28:24 AM 29.9017 -94.2508 76° East 415 478 16,800 1,258 Climbing Houston Center
Fri 11:29:26 AM 29.9306 -94.1197 76° East 419 482 17,900 1,161 Climbing Houston Center
Fri 11:30:28 AM 29.9639 -93.9600 76° East 428 493 19,200 1,113 Climbing Houston Center
Fri 11:31:30 AM 29.9925 -93.8258 76° East 432 497 20,200 1,016 Climbing Houston Center
Fri 11:32:32 AM 30.0217 -93.6869 76° East 443 510 21,300 1,008 Climbing Houston Center
Fri 11:33:35 AM 30.0511 -93.5458 76° East 454 522 22,300 1,008 Climbing Houston Center
Fri 11:34:37 AM 30.0789 -93.4047 77° East 458 527 23,400 1,113 Climbing Houston Center
Fri 11:35:39 AM 30.1147 -93.2344 76° East 461 531 24,600 1,113 Climbing Houston Center
Fri 11:36:41 AM 30.1422 -93.0897 78° East 465 535 25,700 1,065 Climbing Houston Center
Fri 11:37:43 AM 30.1636 -92.9428 80° East 467 537 26,800 1,016 Climbing Houston Center
Fri 11:38:45 AM 30.1842 -92.7969 81° East 464 534 27,800 1,016 Climbing Houston Center
Fri 11:39:47 AM 30.2053 -92.6500 81° East 465 535 28,900 1,161 Climbing Houston Center
Fri 11:40:49 AM 30.2286 -92.4744 81° East 463 533 30,200 1,104 Climbing Houston Center
Fri 11:41:52 AM 30.2481 -92.3358 81° East 466 536 31,200 960 Climbing Houston Center
Fri 11:42:54 AM 30.2675 -92.1867 81° East 470 541 32,200 871 Climbing Houston Center
Fri 11:43:56 AM 30.2928 -92.0075 81° East 473 544 33,000 387 Climbing Houston Center
Fri 11:44:58 AM 30.3122 -91.8519 82° East 487 560 33,000  Level Houston Center
Fri 11:46:00 AM 30.3361 -91.6778 81° East 508 585 33,000  Level Houston Center
Fri 11:47:02 AM 30.3586 -91.5114 81° East 519 597 33,000  Level Houston Center
Fri 11:48:04 AM 30.3806 -91.3450 81° East 522 601 33,000  Level Houston Center
Fri 11:49:06 AM 30.4014 -91.1797 82° East 522 601 33,000  Level Houston Center
Fri 11:50:08 AM 30.4208 -91.0150 82° East 518 596 33,000  Level Houston Center
Fri 11:51:11 AM 30.4428 -90.8494 81° East 519 597 33,000  Level Houston Center
Fri 11:52:13 AM 30.4664 -90.6506 82° East 519 597 33,000  Level Houston Center
Fri 11:53:15 AM 30.4881 -90.4850 81° East 519 597 33,000  Level Houston Center
Fri 11:54:17 AM 30.5158 -90.3206 79° East 521 600 33,000  Level Houston Center
Fri 11:55:19 AM 30.5803 -90.1689 64° Northeast 522 601 33,000  Level Houston Center
Fri 11:56:21 AM 30.6481 -90.0183 62° Northeast 522 601 33,000  Level Houston Center
Fri 11:57:23 AM 30.7158 -89.8667 63° Northeast 522 601 33,000  Level Houston Center
Fri 11:58:25 AM 30.7836 -89.7144 63° Northeast 524 603 33,000  Level Houston Center
Fri 11:59:27 AM 30.8636 -89.5322 63° Northeast 525 604 33,000  Level Houston Center
Fri 12:00:29 PM 30.9303 -89.3811 63° Northeast 523 602 33,000  Level Houston Center
Fri 12:01:31 PM 30.9975 -89.2297 63° Northeast 526 605 33,000  Level Houston Center
Fri 12:02:34 PM 31.0628 -89.0758 64° Northeast 526 605 33,000  Level Houston Center
Fri 12:03:36 PM 31.1361 -88.9067 63° Northeast 524 603 33,000  Level Houston Center
Fri 12:04:38 PM 31.2025 -88.7539 63° Northeast 526 605 33,000  Level Houston Center
Fri 12:05:40 PM 31.2692 -88.6003 63° Northeast 525 604 33,000  Level Houston Center
Fri 12:06:42 PM 31.3361 -88.4472 63° Northeast 523 602 33,000  Level Houston Center
Fri 12:07:44 PM 31.4033 -88.2919 63° Northeast 527 606 33,000  Level Houston Center
Fri 12:08:46 PM 31.4683 -88.1372 64° Northeast 525 604 33,000  Level Houston Center
Fri 12:09:48 PM 31.5339 -87.9822 64° Northeast 527 606 33,000  Level Houston Center
Fri 12:10:50 PM 31.6122 -87.7950 64° Northeast 531 611 33,000  Level Houston Center
Fri 12:11:53 PM 31.6783 -87.6389 64° Northeast 533 613 33,000  Level Houston Center
Fri 12:12:51 PM 31.7486 -87.4847 62° Northeast 524 603 33,000  Level Atlanta Center
Fri 12:13:51 PM 31.8156 -87.3283 63° Northeast 524 603 33,000  Level Atlanta Center
Fri 12:14:51 PM 31.8672 -87.1836 67° East 524 603 33,000  Level Atlanta Center
Fri 12:15:51 PM 31.9339 -87.0244 64° Northeast 529 609 33,000  Level Atlanta Center
Fri 12:16:51 PM 32.0022 -86.8675 63° Northeast 529 609 33,000  Level Atlanta Center
Fri 12:17:51 PM 32.0750 -86.6958 63° Northeast 534 615 33,000  Level Atlanta Center
Fri 12:18:51 PM 32.1389 -86.5358 65° Northeast 534 615 33,000  Level Atlanta Center
Fri 12:19:51 PM 32.2003 -86.3756 66° East 534 615 33,000  Level Atlanta Center
Fri 12:20:51 PM 32.2928 -86.2306 53° Northeast 535 616 33,000  Level Atlanta Center
Fri 12:21:51 PM 32.3697 -86.1242 49° Northeast 535 616 33,000  Level Atlanta Center
Fri 12:22:51 PM 32.4764 -85.9814 48° Northeast 530 610 33,000  Level Atlanta Center
Fri 12:23:51 PM 32.5956 -85.8314 47° Northeast 552 635 33,000  Level Atlanta Center
Fri 12:24:51 PM 32.6936 -85.6975 49° Northeast 552 635 33,000  Level Atlanta Center
Fri 12:25:51 PM 32.7956 -85.5636 48° Northeast 546 628 33,000  Level Atlanta Center
Fri 12:26:51 PM 32.8950 -85.4342 48° Northeast 533 613 33,000  Level Atlanta Center
Fri 12:27:51 PM 32.9906 -85.3019 49° Northeast 533 613 33,000  Level Atlanta Center
Fri 12:28:51 PM 33.0897 -85.1744 47° Northeast 526 605 33,000  Level Atlanta Center
Fri 12:29:51 PM 33.1847 -85.0442 49° Northeast 521 600 33,000  Level Atlanta Center
Fri 12:30:51 PM 33.2467 -84.8858 65° Northeast 513 590 33,000  Level Atlanta Center
Fri 12:31:51 PM 33.2747 -84.7147 79° East 513 590 33,000  Level Atlanta Center
Fri 12:32:51 PM 33.3028 -84.5458 79° East 519 597 33,000  Level Atlanta Center
Fri 12:33:51 PM 33.3325 -84.3719 78° East 524 603 33,000  Level Atlanta Center
Fri 12:34:51 PM 33.3619 -84.2006 78° East 524 603 33,000  Level Atlanta Center
Fri 12:35:51 PM 33.3914 -84.0289 78° East 524 603 33,000  Level Atlanta Center
Fri 12:36:53 PM 33.4206 -83.8572 78° East 530 610 33,000  Level Atlanta Center
Fri 12:38:03 PM 33.4533 -83.6506 79° East 530 610 33,000  Level Atlanta Center
Fri 12:39:03 PM 33.4800 -83.4808 79° East 519 597 33,000  Level Atlanta Center
Fri 12:40:03 PM 33.5103 -83.3064 78° East 526 605 33,000  Level Atlanta Center
Fri 12:41:03 PM 33.5342 -83.1367 80° East 526 605 33,000  Level Atlanta Center
Fri 12:42:03 PM 33.5642 -82.9667 78° East 526 605 33,000  Level Atlanta Center
Fri 12:43:03 PM 33.5917 -82.7969 79° East 518 596 33,000  Level Atlanta Center
Fri 12:44:03 PM 33.6192 -82.6244 79° East 523 602 33,000  Level Atlanta Center
Fri 12:46:04 PM 33.6722 -82.2761 80° East 547 629 33,000  Level Jacksonville Center
Fri 12:47:04 PM 33.7006 -82.1086 78° East 533 613 33,000  Level Jacksonville Center
Fri 12:48:04 PM 33.7283 -81.9361 79° East 520 598 33,000  Level Jacksonville Center
Fri 12:49:04 PM 33.7625 -81.7683 76° East 520 598 33,000  Level Jacksonville Center
Fri 12:50:04 PM 33.8425 -81.6222 57° Northeast 513 590 33,000  Level Jacksonville Center
Fri 12:51:04 PM 33.9328 -81.4808 52° Northeast 518 596 33,000  Level Jacksonville Center
Fri 12:52:04 PM 34.0189 -81.3392 54° Northeast 518 596 33,000 -350 Level Jacksonville Center
Fri 12:53:04 PM 34.0986 -81.2097 53° Northeast 528 608 32,300 -900 Descending Jacksonville Center
Fri 12:54:04 PM 34.1864 -81.0700 53° Northeast 528 608 31,200 -650 Descending Jacksonville Center
Fri 12:55:04 PM 34.2778 -80.9175 54° Northeast 523 602 31,000 -100 Descending Jacksonville Center
Fri 12:56:04 PM 34.3589 -80.7747 55° Northeast 516 594 31,000  Level Jacksonville Center
Fri 12:57:04 PM 34.4483 -80.6342 52° Northeast 522 601 31,000 -400 Level Jacksonville Center
Fri 12:58:04 PM 34.5333 -80.4906 54° Northeast 522 601 30,200 -900 Descending Jacksonville Center
Fri 12:59:04 PM 34.6203 -80.3469 54° Northeast 528 608 29,200 -1,961 Descending Jacksonville Center
Fri 01:00:37 PM 34.7450 -80.1264 55° Northeast 532 612 25,200 -2,392 Descending Washington Center
Fri 01:01:37 PM 34.8331 -80.0100 47° Northeast 490 564 23,100 -1,150 Descending Washington Center
Fri 01:02:37 PM 34.9308 -79.9011 42° Northeast 476 548 22,900 -550 Descending Washington Center
Fri 01:03:37 PM 35.0328 -79.7925 41° Northeast 476 548 22,000 -800 Descending Washington Center
Fri 01:04:37 PM 35.1306 -79.6833 42° Northeast 476 548 21,300 -750 Descending Washington Center
Fri 01:05:37 PM 35.2256 -79.5839 41° Northeast 460 529 20,500 -1,000 Descending Washington Center
Fri 01:06:37 PM 35.3347 -79.5053 30° Northeast 455 524 19,300 -1,600 Descending Washington Center
Fri 01:07:37 PM 35.4286 -79.4411 29° Northeast 439 505 17,300 -1,875 Descending Washington Center
Fri 01:08:29 PM 35.5100 -79.3761 33° Northeast 363 418 15,800 -2,339 Descending Washington Center
Fri 01:09:35 PM 35.5800 -79.2669 52° Northeast 334 384 12,700 -2,598 Descending Washington Center
Fri 01:10:36 PM 35.6372 -79.1700 54° Northeast 348 400 10,300 -1,967 Descending Washington Center
Fri 01:11:37 PM 35.6878 -79.0828 54° Northeast 327 376 8,700 -1,595 Descending Washington Center
Fri 01:11:55 PM 35.7033 -79.0553 55° Northeast 305 351 8,200 -700 Descending Washington Center
Fri 01:12:37 PM 35.7381 -79.0031 51° Northeast 307 353 8,000 -118 Descending Washington Center
Fri 01:13:37 PM 35.7864 -78.9233 53° Northeast 296 341 8,000  Level Washington Center
Fri 01:14:37 PM 35.8603 -78.8881 21° North 271 312 8,000  Level Washington Center
Fri 01:14:57 PM 35.8856 -78.8814 12° North 301 346 8,000 -700 Level Washington Center
Fri 01:15:37 PM 35.9383 -78.8553 22° Northeast 276 318 7,300 -1,000 Descending Washington Center
Fri 01:15:57 PM 35.9617 -78.8408 27° Northeast 303 349 7,000 -947 Descending Washington Center
Fri 01:16:34 PM 36.0006 -78.7961 43° Northeast 306 352 6,400 -1,239 Descending Washington Center
Fri 01:17:29 PM 36.0503 -78.7264 49° Northeast 292 336 5,100 -1,537 Descending Washington Center
Fri 01:18:35 PM 36.0297 -78.6356 106° East 254 292 3,300 -1,370 Descending Washington Center
Fri 01:19:36 PM 35.9936 -78.6597 208° Southwest 171 197 2,200 -1,082 Descending Washington Center

Login

Don't have an account? Register now (free) for customized features, flight alerts, and more!